Time;durP1;ratioP1;P1;durP2;ratioP2;P2;SDS_P1;SDS_P2;PMS_P1;PMS_P2;Temp;Humidity;BMP_temperature;BMP_pressure;BME280_temperature;BME280_humidity;BME280_pressure;Samples;Min_cycle;Max_cycle;Signal;HPM_P1;HPM_P2
2022/08/15 00:01:35;;;;;;;9.77;4.10;;;;;;;23.80;78.95;100161.84;5014621;28;20875;-70
2022/08/15 00:04:01;;;;;;;9.50;4.73;;;;;;;23.74;79.95;100163.47;5014799;28;20906;-70
2022/08/15 00:06:31;;;;;;;6.60;4.00;;;;;;;23.71;79.68;100166.22;5014606;28;20945;-71
2022/08/15 00:09:01;;;;;;;7.80;4.40;;;;;;;23.69;80.13;100168.63;5014611;28;20942;-70
2022/08/15 00:11:31;;;;;;;7.53;4.20;;;;;;;23.62;80.37;100169.38;5015084;28;20455;-70
2022/08/15 00:14:03;;;;;;;6.60;4.40;;;;;;;23.57;80.76;100167.81;5014729;28;20480;-70
2022/08/15 00:16:35;;;;;;;8.27;4.70;;;;;;;23.50;80.91;100162.31;5014523;28;20874;-70
2022/08/15 00:19:06;;;;;;;8.13;5.10;;;;;;;23.42;81.05;100163.53;5014744;28;20432;-71
2022/08/15 00:21:33;;;;;;;8.00;5.07;;;;;;;23.37;80.57;100164.72;5014900;28;20499;-71
2022/08/15 00:24:01;;;;;;;10.47;5.13;;;;;;;23.30;80.28;100163.94;5014305;28;20791;-71
2022/08/15 00:26:27;;;;;;;9.00;5.00;;;;;;;23.23;80.01;100164.75;5014285;28;20444;-70
2022/08/15 00:28:54;;;;;;;8.23;4.07;;;;;;;23.17;80.20;100160.81;5014261;28;20455;-70
2022/08/15 00:31:21;;;;;;;9.33;5.23;;;;;;;23.13;80.78;100160.03;5014554;28;20459;-70
2022/08/15 00:33:47;;;;;;;9.27;4.80;;;;;;;23.05;80.73;100159.22;5014557;28;20479;-70
2022/08/15 00:36:15;;;;;;;11.97;4.50;;;;;;;22.97;80.88;100159.63;5014424;28;20467;-70
2022/08/15 00:38:42;;;;;;;7.63;4.10;;;;;;;22.90;80.74;100157.69;5014624;28;20816;-70
2022/08/15 00:44:00;;;;;;;7.73;5.10;;;;;;;22.74;81.47;100160.78;5014489;28;20542;-70
2022/08/15 00:46:29;;;;;;;10.30;5.17;;;;;;;22.69;81.67;100158.44;5014170;28;20448;-70
2022/08/15 00:48:56;;;;;;;8.73;5.03;;;;;;;22.64;81.95;100159.63;5014092;28;20448;-70
2022/08/15 00:51:28;;;;;;;7.13;4.37;;;;;;;22.58;81.67;100158.44;5014234;28;20880;-70
2022/08/15 00:53:58;;;;;;;8.47;4.97;;;;;;;22.54;81.65;100165.91;5014263;28;20472;-70
2022/08/15 00:56:32;;;;;;;10.00;4.93;;;;;;;22.47;81.88;100163.13;5014303;28;20444;-70
2022/08/15 00:59:00;;;;;;;7.83;4.90;;;;;;;22.42;82.55;100158.00;5013784;28;20426;-70
2022/08/15 01:01:26;;;;;;;13.10;5.20;;;;;;;22.36;82.79;100152.09;5013669;28;20483;-71
2022/08/15 01:03:53;;;;;;;7.60;3.97;;;;;;;22.33;83.03;100152.88;5013781;28;20903;-71
2022/08/15 01:06:21;;;;;;;7.13;4.83;;;;;;;22.26;83.22;100147.31;5013353;28;20444;-71
2022/08/15 01:08:48;;;;;;;9.80;5.67;;;;;;;22.20;83.36;100148.91;5014123;28;20444;-70
2022/08/15 01:11:26;;;;;;;9.57;4.97;;;;;;;22.18;83.85;100162.31;5013870;28;20472;-74
2022/08/15 01:13:59;;;;;;;10.67;4.90;;;;;;;22.14;83.77;100156.00;5013725;28;20478;-73
2022/08/15 01:16:27;;;;;;;10.70;5.57;;;;;;;22.10;83.88;100155.16;5013851;28;20480;-73
2022/08/15 01:18:54;;;;;;;10.83;5.53;;;;;;;22.03;83.83;100147.63;5013790;28;20452;-72
2022/08/15 01:21:26;;;;;;;12.83;6.43;;;;;;;21.99;84.47;100137.78;5013733;28;20472;-73
2022/08/15 01:24:03;;;;;;;9.80;5.10;;;;;;;21.94;84.62;100141.69;5013698;28;20434;-72
2022/08/15 01:26:32;;;;;;;9.00;5.43;;;;;;;21.91;84.74;100143.28;5013902;28;20436;-72
2022/08/15 01:29:00;;;;;;;10.10;4.83;;;;;;;21.87;84.97;100141.69;5013585;28;20451;-72
2022/08/15 01:31:27;;;;;;;10.13;5.87;;;;;;;21.84;84.75;100137.72;5013675;28;20464;-72
2022/08/15 01:33:56;;;;;;;8.90;5.80;;;;;;;21.82;84.98;100137.31;5013218;28;21011;-72
2022/08/15 01:36:26;;;;;;;10.13;5.23;;;;;;;21.75;85.17;100129.03;5013250;28;20958;-73
2022/08/15 01:39:00;;;;;;;8.30;4.40;;;;;;;21.72;85.65;100134.53;5013573;28;20447;-73
2022/08/15 01:41:33;;;;;;;9.90;4.73;;;;;;;21.71;85.76;100128.22;5013843;28;20460;-72
2022/08/15 01:44:08;;;;;;;7.17;4.30;;;;;;;21.67;85.68;100124.66;5013523;28;20432;-72
2022/08/15 01:46:49;;;;;;;11.43;4.70;;;;;;;21.62;86.17;100125.03;5013499;28;20483;-72
2022/08/15 01:49:30;;;;;;;8.00;4.83;;;;;;;21.59;85.97;100120.28;5013463;28;20423;-72
2022/08/15 01:51:59;;;;;;;10.70;6.13;;;;;;;21.56;86.32;100121.06;5013371;28;20464;-72
2022/08/15 01:54:29;;;;;;;8.07;5.00;;;;;;;21.54;86.81;100128.94;5012911;28;20836;-73
2022/08/15 01:56:57;;;;;;;10.00;5.53;;;;;;;21.50;87.02;100125.38;5013172;28;20815;-72
2022/08/15 01:59:24;;;;;;;8.33;5.47;;;;;;;21.48;87.04;100124.97;5013078;28;20973;-72
2022/08/15 02:01:55;;;;;;;10.97;5.57;;;;;;;21.49;87.21;100132.84;5012920;28;20484;-73
2022/08/15 02:04:25;;;;;;;7.13;4.53;;;;;;;21.43;87.65;100120.63;5013339;28;20432;-73
2022/08/15 02:06:52;;;;;;;11.63;5.90;;;;;;;21.41;87.75;100122.97;5013316;28;20572;-73
2022/08/15 02:09:20;;;;;;;9.13;5.30;;;;;;;21.44;87.95;100124.94;5013263;28;20444;-73
2022/08/15 02:11:52;;;;;;;6.20;4.20;;;;;;;21.43;88.38;100123.38;5013083;28;20475;-73
2022/08/15 02:14:21;;;;;;;11.90;5.10;;;;;;;21.43;88.25;100123.38;5013136;28;20518;-73
2022/08/15 02:16:49;;;;;;;9.50;5.27;;;;;;;21.45;88.43;100132.03;5015129;28;20448;-72
2022/08/15 02:19:16;;;;;;;9.13;5.20;;;;;;;21.48;89.11;100133.25;5017057;28;20822;-72
2022/08/15 02:21:45;;;;;;;8.17;4.57;;;;;;;21.50;89.15;100122.59;5016840;28;20466;-72
2022/08/15 02:24:16;;;;;;;9.50;5.50;;;;;;;21.48;90.05;100119.47;5016903;28;20455;-72
2022/08/15 02:26:42;;;;;;;9.77;5.87;;;;;;;21.49;90.55;100113.56;5016806;28;20447;-72
2022/08/15 02:29:09;;;;;;;9.03;5.20;;;;;;;21.52;90.93;100115.56;5016740;28;20459;-72
2022/08/15 02:31:38;;;;;;;10.47;6.40;;;;;;;21.54;91.94;100107.66;5016610;28;20883;-72
2022/08/15 02:34:06;;;;;;;10.93;6.30;;;;;;;21.59;92.11;100112.81;5016587;28;20479;-72
2022/08/15 02:36:35;;;;;;;10.10;6.43;;;;;;;21.62;92.77;100101.00;5016194;28;20447;-72
2022/08/15 02:39:05;;;;;;;9.87;5.97;;;;;;;21.66;92.73;100110.09;5016590;28;20448;-72
2022/08/15 02:41:34;;;;;;;11.10;6.50;;;;;;;21.70;92.74;100103.81;5016284;28;20989;-72
2022/08/15 02:44:02;;;;;;;9.97;5.37;;;;;;;21.75;92.68;100108.94;5016610;28;20450;-72
2022/08/15 02:46:30;;;;;;;11.60;6.30;;;;;;;21.80;92.37;100117.63;5016518;28;20490;-72
2022/08/15 02:48:58;;;;;;;8.10;5.40;;;;;;;21.85;92.54;100119.22;5016403;28;20475;-72
2022/08/15 02:51:27;;;;;;;7.90;5.40;;;;;;;21.86;92.55;100115.28;5016182;28;20645;-72
2022/08/15 02:53:55;;;;;;;10.67;6.00;;;;;;;21.89;92.63;100112.53;5015940;28;20484;-72
2022/08/15 02:56:25;;;;;;;9.20;5.70;;;;;;;21.89;92.67;100106.22;5016342;28;20451;-72
2022/08/15 02:58:53;;;;;;;11.67;5.97;;;;;;;21.90;92.75;100096.78;5015976;28;20992;-71
2022/08/15 03:04:43;;;;;;;13.07;5.80;;;;;;;21.96;92.05;100097.16;5016958;28;20531;-78
2022/08/15 03:07:10;;;;;;;14.40;6.30;;;;;;;21.98;92.22;100097.59;5020288;28;20448;-77
2022/08/15 03:09:36;;;;;;;9.40;5.80;;;;;;;22.00;92.10;100100.72;5017218;28;20520;-77
2022/08/15 03:12:04;;;;;;;8.97;6.47;;;;;;;21.99;92.18;100107.44;5015871;28;20464;-72
2022/08/15 03:14:30;;;;;;;10.80;6.10;;;;;;;21.95;92.14;100110.16;5015787;28;20486;-71
2022/08/15 03:16:59;;;;;;;9.87;5.63;;;;;;;21.95;92.27;100103.88;5015911;28;20458;-70
2022/08/15 03:19:26;;;;;;;10.27;5.37;;;;;;;21.95;92.33;100114.91;5015912;28;20444;-70
2022/08/15 03:21:55;;;;;;;9.87;6.17;;;;;;;21.96;92.87;100099.94;5015725;28;20498;-70
2022/08/15 03:24:22;;;;;;;9.63;5.40;;;;;;;21.95;92.49;100101.91;5015532;28;20444;-71
2022/08/15 03:26:49;;;;;;;11.83;6.17;;;;;;;21.94;92.96;100100.31;5015412;28;20443;-71
2022/08/15 03:29:19;;;;;;;11.90;5.67;;;;;;;21.94;92.92;100102.31;5014812;28;20440;-71
2022/08/15 03:31:48;;;;;;;12.57;6.13;;;;;;;21.95;93.32;100103.88;5015533;28;20464;-70
2022/08/15 03:34:17;;;;;;;10.30;5.03;;;;;;;21.94;93.32;100094.03;5015178;28;20495;-70
2022/08/15 03:36:46;;;;;;;11.80;5.33;;;;;;;21.95;93.32;100095.59;5015519;28;20470;-70
2022/08/15 03:39:14;;;;;;;10.00;5.10;;;;;;;21.96;93.17;100086.13;5015536;28;20452;-70
2022/08/15 03:41:41;;;;;;;9.60;5.73;;;;;;;21.97;93.05;100082.22;5016699;28;20829;-70
2022/08/15 03:44:08;;;;;;;8.40;5.63;;;;;;;21.99;93.08;100080.63;5015363;28;20444;-70
2022/08/15 03:46:34;;;;;;;9.50;4.83;;;;;;;21.98;93.41;100075.53;5015394;28;20467;-70
2022/08/15 03:49:01;;;;;;;8.00;4.87;;;;;;;21.97;93.38;100084.97;5015315;28;20518;-70
2022/08/15 03:51:28;;;;;;;7.17;5.47;;;;;;;21.99;93.29;100077.88;5015131;28;20464;-70
2022/08/15 03:53:58;;;;;;;13.00;5.67;;;;;;;22.00;92.89;100079.47;5015137;28;20479;-70
2022/08/15 03:56:30;;;;;;;11.80;6.03;;;;;;;21.98;92.51;100075.53;5015157;28;20491;-70
2022/08/15 03:58:58;;;;;;;10.27;6.60;;;;;;;21.95;92.83;100079.06;5014859;28;20864;-70
2022/08/15 04:01:27;;;;;;;9.80;5.07;;;;;;;21.93;93.52;100079.44;5014752;28;20530;-70
2022/08/15 04:03:53;;;;;;;8.87;4.90;;;;;;;21.92;92.93;100078.66;5015036;28;20474;-70
2022/08/15 04:06:23;;;;;;;8.07;5.87;;;;;;;21.89;93.55;100079.44;5014937;28;20451;-71
2022/08/15 04:08:51;;;;;;;9.17;5.60;;;;;;;21.88;93.61;100079.84;5015064;28;20459;-70
2022/08/15 04:11:19;;;;;;;9.60;6.53;;;;;;;21.87;93.91;100078.25;5014687;28;20530;-69
2022/08/15 04:13:48;;;;;;;10.73;6.63;;;;;;;21.86;94.09;100080.22;5014515;28;20450;-70
2022/08/15 04:16:16;;;;;;;11.27;6.57;;;;;;;21.84;94.25;100082.56;5014800;28;20461;-70
2022/08/15 04:18:43;;;;;;;10.87;6.47;;;;;;;21.82;94.28;100079.41;5015186;28;20476;-70
2022/08/15 04:21:11;;;;;;;9.27;5.33;;;;;;;21.83;94.67;100083.75;5014275;28;20984;-70
2022/08/15 04:23:39;;;;;;;8.27;5.60;;;;;;;21.82;94.94;100079.41;5014376;28;21008;-70
2022/08/15 04:26:06;;;;;;;10.47;5.83;;;;;;;21.86;94.99;100084.94;5014878;28;20447;-70
2022/08/15 04:28:32;;;;;;;12.00;6.00;;;;;;;21.87;95.21;100079.06;5014573;28;20440;-71
2022/08/15 04:31:03;;;;;;;9.50;5.30;;;;;;;21.88;95.49;100083.38;5014477;28;20452;-71
2022/08/15 04:33:31;;;;;;;9.30;6.07;;;;;;;21.90;95.63;100075.50;5014528;28;20428;-71
2022/08/15 04:36:01;;;;;;;10.10;5.67;;;;;;;21.90;95.53;100081.00;5014474;28;20491;-71
2022/08/15 04:38:28;;;;;;;11.53;6.50;;;;;;;21.94;95.38;100085.75;5014104;28;20956;-70
2022/08/15 04:40:55;;;;;;;12.27;6.43;;;;;;;21.98;95.17;100083.78;5014268;28;20460;-70
2022/08/15 04:43:23;;;;;;;10.70;7.13;;;;;;;21.97;95.46;100082.22;5014369;28;20539;-70
2022/08/15 04:45:51;;;;;;;10.77;6.67;;;;;;;22.02;95.30;100092.88;5014247;28;20432;-70
2022/08/15 04:48:20;;;;;;;8.10;5.47;;;;;;;22.03;95.65;100086.16;5014223;28;20828;-71
2022/08/15 04:50:49;;;;;;;10.33;6.20;;;;;;;22.06;95.65;100093.66;5014114;28;20463;-70
2022/08/15 04:53:17;;;;;;;12.87;6.93;;;;;;;22.05;95.59;100087.38;5014133;28;20440;-71
2022/08/15 04:55:44;;;;;;;12.07;7.03;;;;;;;22.06;95.74;100090.91;5013991;28;20494;-71
2022/08/15 04:58:12;;;;;;;11.33;5.90;;;;;;;22.09;95.92;100095.63;5014107;28;20531;-71
2022/08/15 05:00:40;;;;;;;10.37;7.17;;;;;;;22.11;95.67;100096.03;5013475;28;21005;-71
2022/08/15 05:03:09;;;;;;;11.93;6.83;;;;;;;22.16;95.86;100095.69;5013757;28;20968;-71
2022/08/15 05:05:40;;;;;;;12.27;7.27;;;;;;;22.15;95.70;100092.13;5013850;28;20497;-71
2022/08/15 05:08:07;;;;;;;10.53;6.03;;;;;;;22.20;95.64;100085.44;5013964;28;20832;-71
2022/08/15 05:10:33;;;;;;;11.07;7.20;;;;;;;22.26;95.50;100085.84;5013779;28;20464;-70
2022/08/15 05:13:08;;;;;;;12.43;6.60;;;;;;;22.30;95.37;100087.41;5013900;28;20801;-71
2022/08/15 05:15:35;;;;;;;10.30;7.20;;;;;;;22.34;95.59;100084.66;5013752;28;20518;-71
2022/08/15 05:18:01;;;;;;;12.10;7.00;;;;;;;22.39;95.58;100085.06;5013805;28;20444;-71
2022/08/15 05:20:28;;;;;;;17.40;7.30;;;;;;;22.47;95.37;100085.06;5013734;28;20467;-70
2022/08/15 05:22:59;;;;;;;10.80;7.07;;;;;;;22.51;95.08;100091.38;5013742;28;20439;-71
2022/08/15 05:25:25;;;;;;;12.43;7.20;;;;;;;22.55;94.71;100084.69;5013810;28;20424;-71
2022/08/15 05:27:52;;;;;;;12.23;6.63;;;;;;;22.60;94.53;100084.28;5013677;28;20444;-72
2022/08/15 05:30:20;;;;;;;10.63;6.70;;;;;;;22.65;94.50;100086.63;5013573;28;20550;-71
2022/08/15 05:32:47;;;;;;;19.40;7.87;;;;;;;22.73;94.48;100089.41;5013862;28;20436;-71
2022/08/15 05:35:13;;;;;;;9.97;5.70;;;;;;;22.76;93.92;100088.63;5013203;28;20841;-71
2022/08/15 05:37:40;;;;;;;13.13;6.70;;;;;;;22.83;93.64;100092.13;5013501;28;20439;-71
2022/08/15 05:40:10;;;;;;;12.80;7.67;;;;;;;22.86;93.35;100091.34;5013412;28;20444;-71
2022/08/15 05:42:47;;;;;;;12.27;6.57;;;;;;;22.91;93.55;100093.75;5013494;28;20451;-72
2022/08/15 05:45:25;;;;;;;15.30;6.93;;;;;;;23.02;93.59;100098.44;5013496;28;20437;-72
2022/08/15 05:48:09;;;;;;;9.87;5.90;;;;;;;23.09;93.12;100099.22;5013532;28;20428;-72
2022/08/15 05:50:46;;;;;;;14.53;7.87;;;;;;;23.21;92.79;100092.50;5013486;28;20460;-72
2022/08/15 05:53:25;;;;;;;13.60;6.47;;;;;;;23.32;92.02;100084.16;5017557;28;20486;-72
2022/08/15 05:55:59;;;;;;;12.83;6.30;;;;;;;23.41;91.66;100081.75;5017060;28;20475;-72
2022/08/15 05:58:41;;;;;;;8.50;4.80;;;;;;;23.48;91.11;100080.97;5017414;28;20428;-74
2022/08/15 06:01:14;;;;;;;13.70;6.00;;;;;;;23.50;91.04;100084.88;5018926;28;20567;-77
2022/08/15 06:03:45;;;;;;;9.80;4.53;;;;;;;23.52;90.74;100082.53;5017935;28;20436;-74
2022/08/15 06:06:15;;;;;;;11.87;5.70;;;;;;;23.52;90.47;100078.97;5017320;28;20424;-71
2022/08/15 06:08:46;;;;;;;10.73;5.20;;;;;;;23.57;90.35;100073.03;5017436;28;20443;-72
2022/08/15 06:11:19;;;;;;;9.97;4.87;;;;;;;23.67;90.64;100077.75;5017181;28;20467;-74
2022/08/15 06:13:49;;;;;;;7.60;3.70;;;;;;;23.78;90.14;100074.94;5017190;28;20424;-76
2022/08/15 06:16:20;;;;;;;10.73;4.30;;;;;;;23.90;89.13;100075.22;5017031;28;20472;-75
2022/08/15 06:18:47;;;;;;;9.63;4.60;;;;;;;23.97;87.75;100073.63;5016945;28;20450;-74
2022/08/15 06:21:22;;;;;;;7.43;4.50;;;;;;;23.99;87.80;100076.78;5016960;28;20843;-75
2022/08/15 06:24:00;;;;;;;7.53;3.77;;;;;;;23.98;87.42;100086.28;5016807;28;20466;-75
2022/08/15 06:26:40;;;;;;;5.83;3.10;;;;;;;24.06;87.03;100076.72;5017311;28;20424;-75
2022/08/15 06:29:49;;;;;;;8.40;4.10;;;;;;;24.19;86.43;100085.34;5017272;28;20909;-72
2022/08/15 06:32:22;;;;;;;8.13;4.30;;;;;;;24.25;86.46;100078.19;4985422;28;20479;-72
2022/08/15 06:34:59;;;;;;;9.00;4.77;;;;;;;24.35;86.04;100072.59;5016660;28;20499;-74
2022/08/15 06:37:35;;;;;;;9.57;4.60;;;;;;;24.45;85.39;100078.47;5016922;28;20436;-72
2022/08/15 06:40:10;;;;;;;9.00;4.63;;;;;;;24.48;85.07;100077.63;5016763;28;20462;-72
2022/08/15 06:42:40;;;;;;;6.93;4.10;;;;;;;24.51;84.79;100079.59;5016503;28;20428;-72
2022/08/15 06:45:14;;;;;;;11.43;4.20;;;;;;;24.53;84.52;100077.22;5016745;28;20444;-73
2022/08/15 06:47:41;;;;;;;9.77;5.13;;;;;;;24.52;83.60;100075.63;5016190;28;20905;-74
2022/08/15 06:50:14;;;;;;;8.60;4.93;;;;;;;24.51;84.28;100074.06;5015988;28;20447;-72
2022/08/15 06:52:47;;;;;;;7.10;4.43;;;;;;;24.52;84.96;100072.84;5016633;28;20429;-73
2022/08/15 06:55:13;;;;;;;9.60;4.77;;;;;;;24.57;85.31;100077.94;5016290;28;20564;-73
2022/08/15 06:57:48;;;;;;;7.13;4.10;;;;;;;24.62;85.16;100075.56;5016014;28;20428;-72
2022/08/15 07:00:20;;;;;;;7.40;4.10;;;;;;;24.66;83.66;100068.00;5016015;28;20490;-72
2022/08/15 07:02:55;;;;;;;14.53;4.37;;;;;;;24.72;83.71;100073.88;5014789;28;20773;-72
2022/08/15 07:05:27;;;;;;;8.20;4.20;;;;;;;24.73;83.35;100069.13;5016146;28;20451;-73
2022/08/15 07:08:00;;;;;;;7.53;3.60;;;;;;;24.80;82.72;100069.84;5017034;28;20433;-75
2022/08/15 07:10:31;;;;;;;10.40;4.07;;;;;;;24.89;82.16;100066.59;5016021;28;20460;-72
2022/08/15 07:13:04;;;;;;;7.57;3.93;;;;;;;24.87;82.87;100069.75;5016440;28;20436;-78
2022/08/15 07:15:46;;;;;;;8.10;4.30;;;;;;;24.92;81.50;100062.97;5017155;28;20555;-76
2022/08/15 07:18:19;;;;;;;8.07;4.60;;;;;;;24.97;82.55;100059.78;5015639;28;20811;-74
2022/08/15 07:20:46;;;;;;;7.50;4.03;;;;;;;25.00;81.50;100066.47;5015482;28;20976;-74
2022/08/15 07:23:17;;;;;;;9.17;4.63;;;;;;;25.05;82.38;100074.31;5015686;28;20454;-74
2022/08/15 07:25:47;;;;;;;8.30;5.10;;;;;;;25.12;81.22;100074.28;5015726;28;20436;-74
2022/08/15 07:28:18;;;;;;;7.87;4.10;;;;;;;25.14;80.99;100072.66;5015774;28;20440;-74
2022/08/15 07:30:48;;;;;;;7.60;4.33;;;;;;;25.22;80.99;100072.59;5015301;28;20931;-74
2022/08/15 07:33:29;;;;;;;7.17;4.63;;;;;;;25.27;80.14;100064.59;5015567;28;20440;-74
2022/08/15 07:36:02;;;;;;;12.07;5.20;;;;;;;25.35;79.78;100066.09;5015371;28;20468;-74
2022/08/15 07:38:32;;;;;;;9.70;4.77;;;;;;;25.45;79.99;100063.59;5015592;28;20436;-74
2022/08/15 07:41:15;;;;;;;9.03;4.67;;;;;;;25.53;79.48;100065.09;5015336;28;20479;-74
2022/08/15 07:43:43;;;;;;;8.77;4.53;;;;;;;25.66;79.67;100066.09;5015360;28;20447;-74
2022/08/15 07:46:14;;;;;;;11.67;5.70;;;;;;;25.69;78.71;100067.28;5015076;28;20843;-74
2022/08/15 07:48:42;;;;;;;8.67;4.73;;;;;;;25.62;78.60;100055.06;5015308;28;20438;-74
2022/08/15 07:51:18;;;;;;;8.13;4.10;;;;;;;25.63;78.86;100058.59;5015147;28;20471;-74
2022/08/15 07:53:57;;;;;;;8.47;4.70;;;;;;;25.61;78.68;100049.94;5015472;28;20440;-74
2022/08/15 07:56:24;;;;;;;10.13;5.03;;;;;;;25.63;78.85;100047.50;5015193;28;20526;-74
2022/08/15 07:58:55;;;;;;;10.70;4.60;;;;;;;25.70;78.10;100055.75;5015165;28;20506;-74
2022/08/15 08:01:24;;;;;;;6.73;4.10;;;;;;;25.77;78.09;100044.59;5014639;28;20480;-74
2022/08/15 08:03:57;;;;;;;9.03;4.97;;;;;;;25.81;77.88;100047.28;5014960;28;20433;-74
2022/08/15 08:06:32;;;;;;;7.00;3.80;;;;;;;25.79;77.31;100044.94;5015018;28;20432;-74
2022/08/15 08:09:07;;;;;;;7.50;4.67;;;;;;;25.74;76.95;100042.63;5014975;28;20446;-73
2022/08/15 08:11:45;;;;;;;6.90;4.20;;;;;;;25.79;76.78;100046.94;5014808;28;20525;-73
2022/08/15 08:14:22;;;;;;;9.97;5.30;;;;;;;25.81;78.25;100047.28;5014498;28;20494;-74
2022/08/15 08:16:54;;;;;;;7.90;4.23;;;;;;;25.88;77.49;100050.75;5014590;28;20499;-74
2022/08/15 08:19:33;;;;;;;10.70;4.90;;;;;;;25.94;76.09;100053.06;5014654;28;20437;-74
2022/08/15 08:22:08;;;;;;;8.90;4.37;;;;;;;26.04;74.48;100046.59;5014619;28;20468;-74
2022/08/15 08:24:51;;;;;;;9.50;4.70;;;;;;;26.08;75.44;100048.09;5014680;28;20428;-74
2022/08/15 08:27:31;;;;;;;8.90;4.70;;;;;;;26.17;74.64;100040.03;5014454;28;20792;-74
2022/08/15 08:30:05;;;;;;;9.83;4.40;;;;;;;26.23;74.47;100043.09;5015357;28;20436;-74
2022/08/15 08:32:44;;;;;;;6.13;3.90;;;;;;;26.33;74.47;100031.03;5014409;28;20436;-73
2022/08/15 08:35:22;;;;;;;6.27;4.00;;;;;;;26.39;73.89;100032.13;5014245;28;20441;-74
2022/08/15 08:38:01;;;;;;;10.77;5.40;;;;;;;26.40;73.82;100032.91;5014546;28;20436;-74
2022/08/15 08:43:33;;;;;;;12.43;5.03;;;;;;;26.41;72.33;100028.91;5014131;28;20782;-73
2022/08/15 08:46:12;;;;;;;8.10;4.40;;;;;;;26.37;72.66;100044.84;5014358;28;20444;-74
2022/08/15 08:48:59;;;;;;;7.90;4.37;;;;;;;26.36;71.84;100024.63;5014388;28;20451;-73
2022/08/15 08:51:34;;;;;;;9.40;4.10;;;;;;;26.38;73.19;100036.09;5014153;28;20829;-74
2022/08/15 08:54:07;;;;;;;7.93;4.50;;;;;;;26.52;72.48;100031.53;5014266;28;20435;-74
2022/08/15 08:56:38;;;;;;;7.67;4.53;;;;;;;26.62;72.30;100030.56;5014049;28;20491;-74
2022/08/15 08:59:14;;;;;;;8.30;4.20;;;;;;;26.71;71.33;100028.03;5014160;28;20425;-73
2022/08/15 09:01:42;;;;;;;6.83;4.00;;;;;;;26.86;71.17;100032.09;5016144;28;20490;-78
2022/08/15 09:04:20;;;;;;;8.57;4.47;;;;;;;26.94;70.62;100023.63;5014524;28;20474;-73
2022/08/15 09:06:49;;;;;;;9.20;4.30;;;;;;;26.94;69.83;100027.19;5013952;28;20447;-73
2022/08/15 09:09:24;;;;;;;8.33;4.63;;;;;;;27.03;69.66;100021.06;5013608;28;20991;-74
2022/08/15 09:11:56;;;;;;;8.20;4.80;;;;;;;27.10;68.21;100023.75;5013764;28;20463;-74
2022/08/15 09:14:35;;;;;;;7.93;4.13;;;;;;;27.15;67.58;100014.91;5013811;28;20451;-74
2022/08/15 09:17:12;;;;;;;8.60;4.30;;;;;;;27.15;66.70;100020.47;5013799;28;20467;-74
2022/08/15 09:19:46;;;;;;;9.67;4.17;;;;;;;27.12;69.12;100019.31;5013725;28;20432;-74
2022/08/15 09:22:13;;;;;;;8.57;5.03;;;;;;;27.16;69.43;100016.47;5013664;28;20464;-74
2022/08/15 09:24:40;;;;;;;9.90;4.33;;;;;;;27.23;68.93;100015.53;5013917;28;20441;-74
2022/08/15 09:27:13;;;;;;;6.90;3.70;;;;;;;27.34;68.19;100011.31;5012862;28;20440;-74
2022/08/15 09:29:44;;;;;;;8.73;4.30;;;;;;;27.42;68.42;100007.16;5013806;28;20432;-74
2022/08/15 09:32:25;;;;;;;8.13;5.13;;;;;;;27.59;67.60;100004.44;5013701;28;20459;-74
2022/08/15 09:35:13;;;;;;;8.80;4.50;;;;;;;27.71;66.11;100006.53;5013688;28;20432;-74
2022/08/15 09:38:16;;;;;;;6.53;3.70;;;;;;;27.83;66.47;100005.09;5013578;28;20903;-74
2022/08/15 09:40:57;;;;;;;6.70;4.23;;;;;;;27.97;65.21;99996.41;5013531;28;20467;-74
2022/08/15 09:43:42;;;;;;;7.87;4.17;;;;;;;28.08;66.01;100007.28;5014991;28;20436;-75
2022/08/15 09:46:29;;;;;;;7.40;4.13;;;;;;;28.08;65.78;99996.16;5013453;28;20444;-74
2022/08/15 09:49:11;;;;;;;8.20;4.40;;;;;;;28.09;64.15;100003.28;5013811;28;20843;-74
2022/08/15 09:51:57;;;;;;;5.73;3.47;;;;;;;28.08;64.02;99998.94;5013499;28;20641;-74
2022/08/15 09:54:25;;;;;;;12.40;4.40;;;;;;;28.19;64.48;99985.50;5013602;28;20436;-74
2022/08/15 09:57:34;;;;;;;6.77;4.80;;;;;;;28.32;64.49;99994.72;5013428;28;20925;-73
2022/08/15 10:00:04;;;;;;;10.10;4.73;;;;;;;28.45;62.98;99994.84;5007201;28;20463;-74
2022/08/15 10:02:33;;;;;;;7.17;4.37;;;;;;;28.43;61.71;99988.16;5013033;28;20483;-74
2022/08/15 10:05:27;;;;;;;7.43;3.87;;;;;;;28.47;63.35;99983.28;5013306;28;20444;-74
2022/08/15 10:07:59;;;;;;;7.30;3.70;;;;;;;28.51;60.52;99983.94;5010621;28;20525;-74
2022/08/15 10:10:47;;;;;;;11.40;4.50;;;;;;;28.53;60.61;99982.28;5013371;28;20456;-74
2022/08/15 10:13:30;;;;;;;6.50;4.03;;;;;;;28.58;60.19;99978.94;5013589;28;20436;-75
2022/08/15 10:15:58;;;;;;;8.07;4.23;;;;;;;28.74;60.95;99980.94;5013240;28;20471;-74
2022/08/15 10:19:01;;;;;;;8.30;4.30;;;;;;;28.89;60.63;99973.72;5013306;28;20451;-75
2022/08/15 10:21:36;;;;;;;6.20;3.40;;;;;;;29.03;60.07;99969.75;5013119;28;20463;-74
2022/08/15 10:24:09;;;;;;;8.53;3.77;;;;;;;29.11;58.42;99973.13;5013326;28;20921;-74
2022/08/15 10:26:37;;;;;;;7.67;4.63;;;;;;;29.16;58.95;99967.78;5013224;28;20443;-74
2022/08/15 10:29:13;;;;;;;7.20;4.30;;;;;;;29.04;57.47;99968.56;5013079;28;20809;-74
2022/08/15 10:31:52;;;;;;;9.90;4.17;;;;;;;29.01;58.96;99969.44;5013083;28;20473;-74
2022/08/15 10:34:38;;;;;;;10.20;4.40;;;;;;;29.16;59.47;99964.22;5013120;28;20435;-75
2022/08/15 10:37:16;;;;;;;6.60;3.70;;;;;;;29.30;58.86;99966.56;5013911;28;20551;-75
2022/08/15 10:40:02;;;;;;;7.93;4.10;;;;;;;29.16;59.43;99967.78;5016398;28;20909;-74
2022/08/15 10:42:35;;;;;;;7.60;4.50;;;;;;;29.01;59.36;99968.66;5016730;28;20432;-74
2022/08/15 10:45:13;;;;;;;7.50;4.50;;;;;;;28.87;59.68;99965.03;5016875;28;20435;-74
2022/08/15 10:47:54;;;;;;;9.33;4.40;;;;;;;28.70;60.75;99957.94;5016104;28;20456;-74
2022/08/15 10:50:26;;;;;;;6.43;3.80;;;;;;;28.62;60.25;99965.72;5016533;28;20504;-74
2022/08/15 10:53:07;;;;;;;7.37;3.77;;;;;;;28.57;60.32;99957.09;5016437;28;20432;-74
2022/08/15 10:55:36;;;;;;;12.43;4.20;;;;;;;28.56;61.35;99958.34;5016404;28;20440;-74
2022/08/15 10:58:12;;;;;;;8.20;4.00;;;;;;;28.52;60.58;99957.66;5016195;28;21026;-74
2022/08/15 11:00:44;;;;;;;6.33;4.10;;;;;;;28.59;59.70;99963.00;5015821;28;21008;-74
2022/08/15 11:03:18;;;;;;;7.10;4.03;;;;;;;28.70;59.45;99963.50;5016287;28;20451;-74
2022/08/15 11:06:04;;;;;;;7.20;4.40;;;;;;;28.72;58.64;99961.06;5016230;28;20464;-75
2022/08/15 11:08:31;;;;;;;7.03;4.03;;;;;;;28.83;59.20;99955.19;5016089;28;20436;-74
2022/08/15 11:11:05;;;;;;;7.17;3.80;;;;;;;28.90;59.74;99950.19;5019254;28;20984;-79
2022/08/15 11:13:32;;;;;;;8.73;3.80;;;;;;;28.95;58.75;99960.00;5020974;28;20433;-79
2022/08/15 11:16:09;;;;;;;7.17;4.30;;;;;;;29.03;59.94;99950.25;5021337;28;20444;-81
2022/08/15 11:18:38;;;;;;;5.60;3.97;;;;;;;29.07;60.11;99936.19;5017893;28;20428;-74
2022/08/15 11:21:18;;;;;;;6.90;4.03;;;;;;;29.35;60.10;99940.13;5015875;28;20468;-74
2022/08/15 11:23:54;;;;;;;7.00;4.33;;;;;;;30.01;57.39;99946.03;5015815;28;20420;-74
2022/08/15 11:26:24;;;;;;;5.73;3.30;;;;;;;30.22;55.20;99934.16;5015708;28;20424;-74
2022/08/15 11:28:56;;;;;;;7.60;4.27;;;;;;;30.88;54.22;99935.00;5015727;28;20443;-74
2022/08/15 11:31:23;;;;;;;6.67;4.10;;;;;;;31.74;51.30;99937.28;5015890;28;20460;-74
2022/08/15 11:33:54;;;;;;;5.63;3.40;;;;;;;31.88;49.72;99936.75;5015567;28;20478;-74
2022/08/15 11:36:24;;;;;;;6.20;3.53;;;;;;;31.55;49.42;99930.06;5015545;28;20500;-74
2022/08/15 11:38:54;;;;;;;7.03;3.67;;;;;;;31.05;51.81;99920.81;5015773;28;20440;-74
2022/08/15 11:41:28;;;;;;;6.27;3.90;;;;;;;31.12;51.86;99931.72;5015317;28;20472;-74
2022/08/15 11:43:58;;;;;;;7.03;3.90;;;;;;;32.08;50.44;99925.09;5014998;28;20427;-74
2022/08/15 11:46:26;;;;;;;8.13;3.70;;;;;;;32.99;46.65;99925.56;5014969;28;20450;-74
2022/08/15 11:49:04;;;;;;;9.80;4.33;;;;;;;33.23;45.09;99926.41;5014456;28;20451;-75
2022/08/15 11:51:36;;;;;;;6.60;3.50;;;;;;;32.86;46.26;99929.28;5015325;28;20475;-74
2022/08/15 11:54:16;;;;;;;6.93;3.80;;;;;;;32.32;48.47;99927.28;5015334;28;20531;-74
2022/08/15 11:56:45;;;;;;;9.97;3.90;;;;;;;31.65;49.52;99924.06;5014816;28;20468;-74